Airfield :
LOGIN :

Register | Disclaimer

   EN    FR    IT 

 










Legend :    VFR   Marginal VFR   IFR   Intensive IFR   Very Intensive IFR
Visi :
Ceiling :
>= 8 km
>= 3000ft
5 to 8 km
1000 to 3000 ft
1500m to 5 km
500 to 1000 ft
800 to 1500m
200 to 500 ft
< 800m
< 200 ft
Symbols :   Thunderstorms  Fog  Heavy snow  Heavy precipitations  Wind > 20 kt
SIGMETs :     Misc.  Thunderstorms  Icing  Turbulence  Mountain Waves  Volcanic Ashes






- Airport Elevation : 325 ft
- IATA code : BES


LFRB - Brest

CURRENT METAR :
  • 271400Z AUTO 33014KT 9999 BKN026 OVC034 09/04 Q1012 NOSIG

EXPIRED METARs :
  • 271330Z AUTO 33013KT 300V360 9999 BKN029 OVC036 09/04 Q1011 NOSIG
  • 271300Z AUTO 34014KT 9999 FEW026 BKN038 BKN049 09/04 Q1011 NOSIG
  • 271230Z AUTO 34017KT 310V010 9999 BKN026 OVC039 09/04 Q1010 BECMG 32007KT
  • 271200Z AUTO 34016KT 9999 FEW024 BKN030 BKN037 09/04 Q1009 NOSIG
  • 271130Z AUTO 33018KT 9999 BKN022 OVC032 08/04 Q1008

TAF TAF LFRB
Valid from the 27 at 12:00 until the 28 at 18:00 UTC


271100Z 2712/2818 34018KT 9999 BKN026
BECMG 2712/2715 32007KT
BECMG 2800/2802 18015G25KT 4000 RA BR BKN010
BECMG 2810/2812 24015G30KT 9999 NSW
ATIS : +33 2 98 32 02 71



MET'MAP, your aeronautical weather chart ! - Copyright ORBIFLY December 2007 - Disclaimer

ORBIFLY MET'MAP TEAM :

Programming & Development : Alexandra Zaïnal
Concept & original design : Baudouin d'Aumeries
Assistance for programming : Marc-Olivier Méhu
Technical & hardware support : Manuel Goepfert

Contact : metmap@orbifly.com




SOURCES & CREDITS :

   NOAA